Time;durP1;ratioP1;P1;durP2;ratioP2;P2;SDS_P1;SDS_P2;PMS_P1;PMS_P2;Temp;Humidity;BMP_temperature;BMP_pressure;BME280_temperature;BME280_humidity;BME280_pressure;Samples;Min_cycle;Max_cycle;Signal;HPM_P1;HPM_P2
2022/05/21 00:00:23;;;;;;;;;;;14.60;99.50;;;;;;4955843;29;19914;-65
2022/05/21 00:02:50;;;;;;;;;;;14.60;99.50;;;;;;4957492;28;20001;-65
2022/05/21 00:05:17;;;;;;;;;;;14.70;99.60;;;;;;4947338;28;19958;-65
2022/05/21 00:07:43;;;;;;;;;;;14.70;99.50;;;;;;4934990;29;20284;-66
2022/05/21 00:10:12;;;;;;;;;;;14.70;99.50;;;;;;4955986;29;20288;-66
2022/05/21 00:12:38;;;;;;;;;;;14.70;99.50;;;;;;4955816;29;19989;-66
2022/05/21 00:15:05;;;;;;;;;;;14.70;99.50;;;;;;4970919;28;20332;-66
2022/05/21 00:17:32;;;;;;;;;;;14.70;99.50;;;;;;4955828;29;20297;-66
2022/05/21 00:20:00;;;;;;;;;;;14.70;99.50;;;;;;4960514;28;20254;-66
2022/05/21 00:22:27;;;;;;;;;;;14.80;99.50;;;;;;4956317;28;19933;-66
2022/05/21 00:24:53;;;;;;;;;;;14.80;99.50;;;;;;4954284;28;20441;-66
2022/05/21 00:27:20;;;;;;;;;;;14.90;99.50;;;;;;4969112;28;19910;-66
2022/05/21 00:29:47;;;;;;;;;;;15.00;99.50;;;;;;4955721;28;19910;-66
2022/05/21 00:32:14;;;;;;;;;;;15.00;99.60;;;;;;4953218;28;20061;-66
2022/05/21 00:34:41;;;;;;;;;;;15.10;99.60;;;;;;4954702;28;20412;-66
2022/05/21 00:37:07;;;;;;;;;;;15.10;99.60;;;;;;4953030;28;20020;-66
2022/05/21 00:39:34;;;;;;;;;;;15.10;99.50;;;;;;4946232;28;19917;-66
2022/05/21 00:42:07;;;;;;;;;;;15.20;99.50;;;;;;4941842;29;19914;-66
2022/05/21 00:44:34;;;;;;;;;;;15.20;99.50;;;;;;4923041;29;19907;-65
2022/05/21 00:47:00;;;;;;;;;;;15.20;99.50;;;;;;4946422;28;19917;-66
2022/05/21 00:49:31;;;;;;;;;;;15.30;99.50;;;;;;4956253;28;20357;-66
2022/05/21 00:51:58;;;;;;;;;;;15.30;99.50;;;;;;4954911;28;19922;-66
2022/05/21 00:54:27;;;;;;;;;;;15.40;99.50;;;;;;4956379;28;19911;-65
2022/05/21 00:57:01;;;;;;;;;;;15.40;99.50;;;;;;4934298;29;20355;-62
2022/05/21 01:02:13;;;;;;;;;;;15.50;99.50;;;;;;4920396;29;19918;-66
2022/05/21 01:04:39;;;;;;;;;;;15.50;99.40;;;;;;4917643;29;19921;-67
2022/05/21 01:07:06;;;;;;;;;;;15.50;99.40;;;;;;4943016;28;20365;-66
2022/05/21 01:09:33;;;;;;;;;;;15.60;99.50;;;;;;4955352;29;19914;-67
2022/05/21 01:12:00;;;;;;;;;;;15.60;99.40;;;;;;4958252;28;19911;-66
2022/05/21 01:14:27;;;;;;;;;;;15.60;99.40;;;;;;4954264;28;19911;-67
2022/05/21 01:16:53;;;;;;;;;;;15.60;99.50;;;;;;4937818;29;20272;-66
2022/05/21 01:19:20;;;;;;;;;;;15.60;99.50;;;;;;4951649;29;20444;-66
2022/05/21 01:21:47;;;;;;;;;;;15.70;99.50;;;;;;4948486;28;19922;-68
2022/05/21 01:24:13;;;;;;;;;;;15.70;99.40;;;;;;4934996;29;19966;-67
2022/05/21 01:26:40;;;;;;;;;;;15.70;99.40;;;;;;4954006;28;20009;-67
2022/05/21 01:29:11;;;;;;;;;;;15.70;99.40;;;;;;4952241;28;19935;-67
2022/05/21 01:31:38;;;;;;;;;;;15.70;99.40;;;;;;4951990;28;19910;-67
2022/05/21 01:34:05;;;;;;;;;;;15.70;99.40;;;;;;4954765;28;19909;-67
2022/05/21 01:36:31;;;;;;;;;;;15.70;99.40;;;;;;4954819;28;20380;-67
2022/05/21 01:38:58;;;;;;;;;;;15.70;99.40;;;;;;4951309;28;19962;-68
2022/05/21 01:41:24;;;;;;;;;;;15.60;99.30;;;;;;4952241;28;19918;-67
2022/05/21 01:46:35;;;;;;;;;;;15.60;99.30;;;;;;4960991;28;19913;-67
2022/05/21 01:49:02;;;;;;;;;;;15.60;99.30;;;;;;4959845;28;19910;-67
2022/05/21 01:51:29;;;;;;;;;;;15.60;99.30;;;;;;4952379;28;19910;-67
2022/05/21 01:53:56;;;;;;;;;;;15.60;99.30;;;;;;4953496;28;19959;-67
2022/05/21 01:56:22;;;;;;;;;;;15.60;99.20;;;;;;4954109;28;20262;-68
2022/05/21 01:58:49;;;;;;;;;;;15.50;99.10;;;;;;4951649;28;20388;-68
2022/05/21 02:01:15;;;;;;;;;;;15.40;99.00;;;;;;4953979;28;20262;-68
2022/05/21 02:03:42;;;;;;;;;;;15.50;99.00;;;;;;4930978;28;19921;-69
2022/05/21 02:06:09;;;;;;;;;;;15.50;99.00;;;;;;4963190;28;19929;-68
2022/05/21 02:08:35;;;;;;;;;;;15.40;98.60;;;;;;4965326;28;20500;-69
2022/05/21 02:11:02;;;;;;;;;;;15.30;98.40;;;;;;4965898;28;19952;-68
2022/05/21 02:13:31;;;;;;;;;;;15.40;98.40;;;;;;4950831;29;19966;-68
2022/05/21 02:15:57;;;;;;;;;;;15.40;98.30;;;;;;4950931;29;19922;-68
2022/05/21 02:18:24;;;;;;;;;;;15.30;97.90;;;;;;4961664;28;19910;-68
2022/05/21 02:55:09;;;;;;;;;;;15.60;94.80;;;;;;4945218;28;19934;-68
2022/05/21 02:57:36;;;;;;;;;;;15.60;93.40;;;;;;4954481;28;19922;-69
2022/05/21 03:00:06;;;;;;;;;;;15.60;94.00;;;;;;4951870;28;19922;-68
2022/05/21 03:02:33;;;;;;;;;;;15.60;94.10;;;;;;4957627;28;19970;-68
2022/05/21 03:04:59;;;;;;;;;;;15.70;94.60;;;;;;4954263;28;20377;-73
2022/05/21 03:07:26;;;;;;;;;;;15.70;93.60;;;;;;4969620;28;19914;-68
2022/05/21 03:12:37;;;;;;;;;;;15.80;92.00;;;;;;4969505;28;19924;-67
2022/05/21 03:15:04;;;;;;;;;;;16.00;93.90;;;;;;4962341;28;19950;-67
2022/05/21 03:17:31;;;;;;;;;;;16.00;94.60;;;;;;4953765;28;19922;-67
2022/05/21 03:19:57;;;;;;;;;;;15.90;94.50;;;;;;4951226;28;20017;-68
2022/05/21 03:22:24;;;;;;;;;;;15.90;94.90;;;;;;4952724;29;19986;-68
2022/05/21 03:24:50;;;;;;;;;;;15.80;94.60;;;;;;4935305;29;19921;-70
2022/05/21 03:27:17;;;;;;;;;;;15.80;93.60;;;;;;4954198;28;19930;-67
2022/05/21 03:29:44;;;;;;;;;;;15.80;92.40;;;;;;4961914;28;19957;-68
2022/05/21 03:32:10;;;;;;;;;;;15.90;93.20;;;;;;4943267;29;20284;-68
2022/05/21 03:34:37;;;;;;;;;;;16.00;92.90;;;;;;4950711;28;21629;-67
2022/05/21 03:37:04;;;;;;;;;;;16.00;92.40;;;;;;4945002;29;19944;-67
2022/05/21 03:39:30;;;;;;;;;;;16.10;91.30;;;;;;4950625;29;19970;-67
2022/05/21 03:41:57;;;;;;;;;;;16.10;92.90;;;;;;4951797;28;19914;-67
2022/05/21 03:44:25;;;;;;;;;;;16.20;92.50;;;;;;4946574;28;20337;-67
2022/05/21 03:46:52;;;;;;;;;;;16.20;92.50;;;;;;4954168;28;20005;-67
2022/05/21 03:49:19;;;;;;;;;;;16.20;92.50;;;;;;4952400;28;20599;-68
2022/05/21 03:51:45;;;;;;;;;;;16.20;91.50;;;;;;4950100;28;19910;-68
2022/05/21 03:54:12;;;;;;;;;;;16.20;91.20;;;;;;4952187;28;19922;-67
2022/05/21 03:56:38;;;;;;;;;;;16.20;91.30;;;;;;4958638;28;19933;-67
2022/05/21 03:59:05;;;;;;;;;;;16.20;91.00;;;;;;4946107;28;19919;-67
2022/05/21 04:01:32;;;;;;;;;;;16.20;91.30;;;;;;4946453;29;21713;-67
2022/05/21 04:03:58;;;;;;;;;;;16.20;90.90;;;;;;4950025;28;20377;-67
2022/05/21 04:06:25;;;;;;;;;;;16.30;91.80;;;;;;4950867;28;19914;-67
2022/05/21 04:08:51;;;;;;;;;;;16.30;90.10;;;;;;4958946;28;19921;-67
2022/05/21 04:11:18;;;;;;;;;;;16.30;89.70;;;;;;4950437;28;19966;-67
2022/05/21 04:13:48;;;;;;;;;;;16.20;89.10;;;;;;4951343;28;19918;-67
2022/05/21 04:16:14;;;;;;;;;;;16.20;90.50;;;;;;4945767;28;20562;-67
2022/05/21 04:18:41;;;;;;;;;;;16.20;91.30;;;;;;4932760;29;19923;-68
2022/05/21 04:21:08;;;;;;;;;;;16.20;89.90;;;;;;4933749;29;19950;-68
2022/05/21 04:23:35;;;;;;;;;;;16.20;91.40;;;;;;4933711;29;19917;-68
2022/05/21 04:26:01;;;;;;;;;;;16.20;91.60;;;;;;4933517;29;19997;-68
2022/05/21 04:28:28;;;;;;;;;;;16.20;90.80;;;;;;4932614;29;19935;-68
2022/05/21 04:30:55;;;;;;;;;;;16.10;91.00;;;;;;4933660;29;19915;-68
2022/05/21 04:33:21;;;;;;;;;;;16.10;89.50;;;;;;4933923;29;19930;-68
2022/05/21 04:38:33;;;;;;;;;;;16.20;91.80;;;;;;4933480;29;19925;-67
2022/05/21 04:40:59;;;;;;;;;;;16.20;92.40;;;;;;4916991;29;19918;-68
2022/05/21 04:43:26;;;;;;;;;;;16.20;92.70;;;;;;4917074;29;20013;-68
2022/05/21 04:45:54;;;;;;;;;;;16.10;92.10;;;;;;4933477;29;19914;-68
2022/05/21 04:48:20;;;;;;;;;;;16.10;92.00;;;;;;4933412;29;19907;-68
2022/05/21 04:50:47;;;;;;;;;;;16.10;92.40;;;;;;4933425;29;19915;-68
2022/05/21 04:53:14;;;;;;;;;;;16.20;92.40;;;;;;4933125;29;20338;-68
2022/05/21 04:55:40;;;;;;;;;;;16.10;91.80;;;;;;4933318;29;19915;-68
2022/05/21 04:58:08;;;;;;;;;;;16.10;91.70;;;;;;4945018;28;19922;-67
2022/05/21 05:00:35;;;;;;;;;;;16.10;92.40;;;;;;4959795;28;19984;-69
2022/05/21 05:03:01;;;;;;;;;;;16.10;92.60;;;;;;4969013;28;19949;-65
2022/05/21 05:05:28;;;;;;;;;;;16.10;91.70;;;;;;4971554;28;19910;-69
2022/05/21 05:07:55;;;;;;;;;;;16.40;91.00;;;;;;4971478;28;19914;-69
2022/05/21 05:10:22;;;;;;;;;;;16.40;91.50;;;;;;4971781;28;19910;-69
2022/05/21 05:34:53;;;;;;;;;;;16.30;91.10;;;;;;4943128;28;20029;-67
2022/05/21 05:37:20;;;;;;;;;;;16.30;91.00;;;;;;4951556;29;19922;-67
2022/05/21 05:39:47;;;;;;;;;;;16.20;90.40;;;;;;4950947;28;20296;-68
2022/05/21 05:42:13;;;;;;;;;;;16.30;91.00;;;;;;4957566;28;20278;-68
2022/05/21 05:44:40;;;;;;;;;;;16.30;91.20;;;;;;4951257;28;19914;-67
2022/05/21 05:47:07;;;;;;;;;;;16.30;88.90;;;;;;4943309;29;19917;-67
2022/05/21 05:49:33;;;;;;;;;;;16.30;87.60;;;;;;4951257;29;19911;-67
2022/05/21 05:52:00;;;;;;;;;;;16.30;87.20;;;;;;4951467;28;19922;-69
2022/05/21 05:54:26;;;;;;;;;;;16.40;87.90;;;;;;4949370;28;19911;-68
2022/05/21 05:56:53;;;;;;;;;;;16.30;88.30;;;;;;4951323;29;19973;-68
2022/05/21 06:04:49;;;;;;;;;;;16.30;88.00;;;;;;4951005;28;19917;-69
2022/05/21 06:07:15;;;;;;;;;;;16.30;87.70;;;;;;4965386;28;19914;-68
2022/05/21 06:09:42;;;;;;;;;;;16.30;88.70;;;;;;4951163;28;19910;-67
2022/05/21 06:12:12;;;;;;;;;;;16.20;89.70;;;;;;4962318;28;19934;-68
2022/05/21 06:14:38;;;;;;;;;;;16.10;90.00;;;;;;4950650;28;19917;-68
2022/05/21 06:17:05;;;;;;;;;;;16.00;91.90;;;;;;4933261;29;19925;-68
2022/05/21 06:19:31;;;;;;;;;;;15.70;93.60;;;;;;4943920;28;19916;-67
2022/05/21 06:21:58;;;;;;;;;;;15.60;94.60;;;;;;4965707;28;19918;-67
2022/05/21 06:24:25;;;;;;;;;;;15.50;95.40;;;;;;4955227;28;19914;-65
2022/05/21 06:26:51;;;;;;;;;;;15.40;96.20;;;;;;4951203;29;19964;-66
2022/05/21 06:29:18;;;;;;;;;;;15.40;96.80;;;;;;4950589;29;19910;-65
2022/05/21 06:31:44;;;;;;;;;;;15.40;97.30;;;;;;4952335;28;19938;-66
2022/05/21 11:24:15;;;;;;;;;;;14.80;99.20;;;;;;4955661;28;19969;-68
2022/05/21 11:26:44;;;;;;;;;;;14.80;99.20;;;;;;4958128;28;19918;-68
2022/05/21 11:29:13;;;;;;;;;;;14.80;99.20;;;;;;4953014;29;19911;-66
2022/05/21 11:39:51;;;;;;;;;;;14.80;99.30;;;;;;4939830;29;19973;-67
2022/05/21 11:42:22;;;;;;;;;;;14.80;99.20;;;;;;4952675;28;19940;-67
2022/05/21 11:45:08;;;;;;;;;;;14.80;99.20;;;;;;4952594;28;19915;-67
2022/05/21 11:47:48;;;;;;;;;;;14.80;99.20;;;;;;4939773;28;19910;-68
2022/05/21 11:50:15;;;;;;;;;;;14.80;99.30;;;;;;4952199;29;20002;-67
2022/05/21 11:52:42;;;;;;;;;;;14.80;99.20;;;;;;4952729;29;19914;-67
2022/05/21 11:55:12;;;;;;;;;;;14.80;99.30;;;;;;4951927;28;19960;-68
2022/05/21 11:57:39;;;;;;;;;;;14.80;99.20;;;;;;4953611;28;19929;-68
2022/05/21 12:00:11;;;;;;;;;;;14.80;99.30;;;;;;4952469;28;19937;-68
2022/05/21 12:02:41;;;;;;;;;;;14.80;99.20;;;;;;4940889;29;20329;-67
2022/05/21 12:05:11;;;;;;;;;;;14.70;99.20;;;;;;4935775;29;19915;-68
2022/05/21 12:07:44;;;;;;;;;;;14.70;99.30;;;;;;4933088;29;20357;-67
2022/05/21 12:10:10;;;;;;;;;;;14.70;99.30;;;;;;4952063;29;20005;-68
2022/05/21 12:12:58;;;;;;;;;;;14.80;99.30;;;;;;4951905;29;19910;-68
2022/05/21 12:15:38;;;;;;;;;;;14.80;99.30;;;;;;4951509;28;19914;-67
2022/05/21 12:18:07;;;;;;;;;;;14.80;99.30;;;;;;4934499;28;19914;-68
2022/05/21 12:20:44;;;;;;;;;;;14.80;99.30;;;;;;4937143;28;20385;-68
2022/05/21 16:56:46;;;;;;;;;;;14.20;99.40;;;;;;4942449;28;20022;-69
2022/05/21 16:59:13;;;;;;;;;;;14.20;99.30;;;;;;4955091;28;19914;-70
2022/05/21 17:01:41;;;;;;;;;;;14.20;99.40;;;;;;4954803;28;19911;-69
2022/05/21 17:04:08;;;;;;;;;;;14.20;99.40;;;;;;4927737;28;19910;-69
2022/05/21 17:06:35;;;;;;;;;;;14.20;99.40;;;;;;4956137;28;19910;-69
2022/05/21 17:09:01;;;;;;;;;;;14.20;99.40;;;;;;4969091;28;19911;-68
2022/05/21 17:11:28;;;;;;;;;;;14.20;99.40;;;;;;4957276;28;19914;-68
2022/05/21 17:13:55;;;;;;;;;;;14.20;99.40;;;;;;4953260;28;19938;-68
2022/05/21 17:16:22;;;;;;;;;;;14.20;99.40;;;;;;4954016;28;19914;-68
2022/05/21 17:18:48;;;;;;;;;;;14.20;99.40;;;;;;4968466;28;19926;-68
2022/05/21 17:21:15;;;;;;;;;;;14.30;99.40;;;;;;4952885;29;20450;-69
2022/05/21 17:23:41;;;;;;;;;;;14.30;99.40;;;;;;4954925;28;19911;-68
2022/05/21 17:26:08;;;;;;;;;;;14.20;99.50;;;;;;4954168;28;19966;-68
2022/05/21 17:31:19;;;;;;;;;;;14.20;99.40;;;;;;4952961;28;20530;-68
2022/05/21 17:33:46;;;;;;;;;;;14.20;99.50;;;;;;4953799;28;20012;-67
2022/05/21 17:36:16;;;;;;;;;;;14.20;99.50;;;;;;4953335;28;19910;-67
2022/05/21 17:38:43;;;;;;;;;;;14.20;99.50;;;;;;4956757;28;19918;-67
2022/05/21 17:41:11;;;;;;;;;;;14.20;99.40;;;;;;4953084;29;19945;-67
2022/05/21 17:43:38;;;;;;;;;;;14.20;99.50;;;;;;4953762;29;19921;-67
2022/05/21 17:46:04;;;;;;;;;;;14.20;99.50;;;;;;4949471;28;19949;-67
2022/05/21 17:48:31;;;;;;;;;;;14.20;99.50;;;;;;4954236;29;19910;-67
2022/05/21 17:50:57;;;;;;;;;;;14.20;99.50;;;;;;4963983;28;19910;-68
2022/05/21 17:53:25;;;;;;;;;;;14.20;99.50;;;;;;4955968;28;19910;-68
